Share

Heidrick, KY (40949)

liford's (KKYBARBO2) Elev 1066 ft | 36.84 °N, 83.85 °W | Change Station

Current weather conditions updated 13 minutes ago

Clear
Clear
71.1 °F
Feels Like 77 °F
N
2.7
Wind Variable Wind from SW
Sunrise 6:53 AM
Sunset 8:15 PM
Moon Waning Gibbous

Today is forecast to be Cooler than yesterday.

Pressure 30.10 in
Visibility 10.0 miles
Clouds Clear
Heat Index 77 °F
Dew Point 46 °F
Humidity 40%
Rainfall 0.00 in
Snow Depth Not available.
UV 4 out of 16
Pollen 10.40 out of 12
Air Quality Not available.
Flu Activity Sporadic
METAR KLOZ 211353Z AUTO 19004KT 10SM CLR 19/07 A3012 RMK AO2 SLP192 T01890067

More Conditions Fewer Conditions

Pressure 30.10 in
Visibility 10.0 miles
Clouds Clear
Heat Index 77 °F
Dew Point 46 °F
Humidity 40%
Rainfall 0.00 in
Snow Depth Not available.
UV 4 out of 16
Pollen 10.40 out of 12
Air Quality Not available.
Flu Activity Sporadic
METAR KLOZ 211353Z AUTO 19004KT 10SM CLR 19/07 A3012 RMK AO2 SLP192 T01890067

More Conditions Fewer Conditions

10-Day Weather Forecast

Almanac

Astronomy

Apr. 21, 2014 Rise Set
Actual Time 6:53 AM EDT 8:15 PM EDT
Civil Twilight 6:26 AM EDT 8:42 PM EDT
Nautical Twilight 5:53 AM EDT 9:15 PM EDT
Astronomical Twilight 5:19 AM EDT 9:49 PM EDT
Moon 1:42 AM EDT 12:20 PM EDT
Length of Visible Light 14h 16m
Length of Day
13h 22m
Tomorrow will be 2m 10s longer.
Waning Gibbous, 58% of the Moon is Illuminated
Today
Waning Gibbous
Apr 22
Last Quarter
Apr 29
New
May 6
First Quarter
May 14
Full

Today's Extremes

State Highs State Lows

Community

  • Bright Eyes
    Bright Eyes
  • Snowy Robin
    Snowy Robin
  • Sun Pillar and Geese
    Sun Pillar and Geese
  • Showers on the Way
    Showers on the Way
  • Easter Morning Fog
    Easter Morning Fog

WunderPhotos

Upload Photos

1,703,648 photos uploaded!

Nearby

Snow Depth

Station Depth Elevation
No new snow has been reported.

Coastal Water Temperatures

Place Temperature
No Stations Reporting

Earthquake Activity

City Distance Mag. Time & Date
No recent earthquake activity has been reported nearby.
Minimum magnitude displayed is 2.5.

Nearby Weather Stations

Station Location Temp. Heat Index Dew Point Humidity Wind Precip. Elev Updated Type
liford's, Barbourville, KY 71.1 °F 77 °F 46 °F 40% SW  at  2.7 mph - / hr 1066 ft 10:19 AM EDT Normal
MSWO, London, KY 69.3 °F - 46 °F 43% WSW  at  0.0 mph 0.00 in / hr 1163 ft 10:33 AM EDT Rapid Fire
Colmar, Middlesboro, KY 69.0 °F - 47 °F 45% ESE  at  0.0 mph - / hr 1135 ft 10:29 AM EDT Normal
RAWS YELLOW CREEK KY, Middlesboro, KY 62 °F - 39 °F 43% SW  at  5 mph 0.00 in / hr 1089 ft 9:26 AM EDT MADIS
RAWS PEABODY KY, Big Creek, KY 63 °F - 37 °F 38% ESE  at  3 mph 0.00 in / hr 1464 ft 9:01 AM EDT MADIS

Show More Stations Show Fewer Stations

What do you think?

We're not finished. Please let us know what you like, what you don't like, and what you are still missing.